Time;durP1;ratioP1;P1;durP2;ratioP2;P2;SDS_P1;SDS_P2;PMS_P1;PMS_P2;Temp;Humidity;BMP_temperature;BMP_pressure;BME280_temperature;BME280_humidity;BME280_pressure;Samples;Min_cycle;Max_cycle;Signal;HPM_P1;HPM_P2
2024/01/13 00:00:19;;;;;;;4.03;3.63;;;;;;;-5.90;100.00;96996.34;1023417;28;20027;-69
2024/01/13 00:00:49;;;;;;;0.98;0.98;;;;;;;-5.83;100.00;96993.16;1023134;28;20024;-69
2024/01/13 00:01:20;;;;;;;2.47;2.28;;;;;;;-5.90;100.00;96986.13;1027198;28;20034;-69
2024/01/13 00:01:50;;;;;;;7.03;1.85;;;;;;;-5.84;100.00;96995.84;1019471;29;20032;-68
2024/01/13 00:02:21;;;;;;;2.42;2.22;;;;;;;-5.86;100.00;96992.63;1023087;28;20038;-68
2024/01/13 00:02:51;;;;;;;1.85;1.75;;;;;;;-5.84;100.00;96990.72;1028923;28;20031;-68
2024/01/13 00:03:22;;;;;;;2.03;1.92;;;;;;;-5.86;100.00;96982.41;1031614;28;20029;-69
2024/01/13 00:03:52;;;;;;;0.95;0.95;;;;;;;-5.90;100.00;96986.13;1035285;28;20512;-68
2024/01/13 00:04:23;;;;;;;1.23;1.17;;;;;;;-5.84;100.00;96986.41;1035256;28;20073;-70
2024/01/13 00:04:53;;;;;;;3.35;3.15;;;;;;;-5.81;100.00;96985.34;1031114;28;20058;-68
2024/01/13 00:05:24;;;;;;;4.13;1.85;;;;;;;-5.85;100.00;96987.38;1031283;28;20026;-67
2024/01/13 00:05:54;;;;;;;2.35;1.83;;;;;;;-5.82;100.00;96983.75;1031172;28;20030;-68
2024/01/13 00:06:24;;;;;;;8.15;3.65;;;;;;;-5.82;100.00;96989.66;1035013;28;20113;-69
2024/01/13 00:06:55;;;;;;;1.48;1.38;;;;;;;-5.84;100.00;96986.41;1026989;28;20027;-69
2024/01/13 00:07:25;;;;;;;4.47;2.22;;;;;;;-5.83;100.00;96982.13;1031272;28;20029;-70
2024/01/13 00:07:56;;;;;;;1.35;1.35;;;;;;;-5.81;100.00;96982.81;1030289;28;20022;-68
2024/01/13 00:08:27;;;;;;;3.30;2.53;;;;;;;-5.78;100.00;96988.47;1031100;28;20030;-70
2024/01/13 00:08:57;;;;;;;2.42;2.28;;;;;;;-5.77;100.00;96992.66;1027179;28;20027;-68
2024/01/13 00:09:28;;;;;;;3.13;2.90;;;;;;;-5.77;100.00;96991.81;1023065;28;20015;-69
2024/01/13 00:09:58;;;;;;;1.70;1.60;;;;;;;-5.80;100.00;96986.97;1019291;29;20031;-68
2024/01/13 00:10:28;;;;;;;2.65;2.45;;;;;;;-5.76;100.00;96990.91;1015258;29;20033;-68
2024/01/13 00:10:59;;;;;;;5.70;2.63;;;;;;;-5.79;100.00;96988.59;1019245;29;20053;-68
2024/01/13 00:11:29;;;;;;;2.20;1.63;;;;;;;-5.85;100.00;96979.69;1022395;28;20011;-67
2024/01/13 00:12:01;;;;;;;0.90;0.90;;;;;;;-5.86;100.00;96977.28;1027196;28;20655;-68
2024/01/13 00:12:32;;;;;;;5.18;4.63;;;;;;;-5.89;100.00;96975.78;1027312;28;20122;-70
2024/01/13 00:13:02;;;;;;;4.95;3.05;;;;;;;-5.83;100.00;96982.13;1019639;29;20284;-68
2024/01/13 00:13:35;;;;;;;0.80;0.80;;;;;;;-5.82;100.00;96978.63;1018640;29;20522;-68
2024/01/13 00:14:06;;;;;;;0.95;0.95;;;;;;;-5.82;100.00;96978.63;1017599;29;20044;-69
2024/01/13 00:14:36;;;;;;;2.83;2.20;;;;;;;-5.86;100.00;96969.63;1023459;28;20278;-68
2024/01/13 00:15:07;;;;;;;2.53;1.35;;;;;;;-5.83;100.00;96982.94;1031272;28;20046;-68
2024/01/13 00:15:37;;;;;;;1.62;1.00;;;;;;;-5.83;100.00;96975.28;1027263;28;20122;-68
2024/01/13 00:16:08;;;;;;;2.17;1.25;;;;;;;-5.80;100.00;96974.19;1027027;28;20514;-69
2024/01/13 00:16:38;;;;;;;5.07;2.85;;;;;;;-5.85;100.00;96968.69;1026698;28;20461;-69
2024/01/13 00:17:09;;;;;;;0.68;0.68;;;;;;;-5.84;100.00;96968.53;1026027;28;20023;-68
2024/01/13 00:17:39;;;;;;;0.40;0.40;;;;;;;-5.81;100.00;96964.91;1030955;28;20026;-68
2024/01/13 00:18:10;;;;;;;5.07;1.58;;;;;;;-5.81;100.00;96970.81;1026688;28;20026;-69
2024/01/13 00:18:40;;;;;;;1.88;1.77;;;;;;;-5.79;100.00;96968.97;1027283;28;20538;-69
2024/01/13 00:19:11;;;;;;;1.58;1.50;;;;;;;-5.81;100.00;96970.81;1026656;28;20469;-70
2024/01/13 00:19:41;;;;;;;0.95;0.93;;;;;;;-5.86;100.00;96972.19;1023523;28;20019;-68
2024/01/13 00:20:12;;;;;;;1.42;1.38;;;;;;;-5.80;100.00;96969.91;1026886;28;20118;-68
2024/01/13 00:20:42;;;;;;;2.05;1.95;;;;;;;-5.77;100.00;96968.81;1031053;28;20030;-69
2024/01/13 00:21:13;;;;;;;1.15;1.13;;;;;;;-5.79;100.00;96975.81;1027869;28;20339;-69
2024/01/13 00:21:43;;;;;;;1.40;1.38;;;;;;;-5.78;100.00;96972.31;1026195;28;20121;-68
2024/01/13 00:22:14;;;;;;;2.05;1.92;;;;;;;-5.79;100.00;96974.06;1027101;28;20041;-68
2024/01/13 00:22:47;;;;;;;3.30;2.30;;;;;;;-5.74;100.00;96977.03;1027094;28;20030;-68
2024/01/13 00:23:18;;;;;;;1.17;1.13;;;;;;;-5.75;100.00;96977.19;1027264;28;20030;-68
2024/01/13 00:23:48;;;;;;;0.82;0.82;;;;;;;-5.79;100.00;96973.28;1023291;29;20275;-68
2024/01/13 00:24:19;;;;;;;3.17;2.28;;;;;;;-5.77;100.00;96971.38;1020079;29;20038;-69
2024/01/13 00:24:49;;;;;;;4.85;3.00;;;;;;;-5.74;100.00;96971.13;1019356;29;20031;-70
2024/01/13 00:25:20;;;;;;;0.75;0.75;;;;;;;-5.76;100.00;96970.47;1019264;28;20042;-68
2024/01/13 00:25:50;;;;;;;2.47;2.28;;;;;;;-5.79;100.00;96973.28;1027100;28;20392;-68
2024/01/13 00:26:21;;;;;;;1.75;1.65;;;;;;;-5.82;100.00;96973.53;1023383;28;20038;-70
2024/01/13 00:26:51;;;;;;;2.90;2.63;;;;;;;-5.83;100.00;96971.91;1022869;29;20039;-68
2024/01/13 00:27:27;;;;;;;1.85;1.58;;;;;;;-5.87;100.00;96967.97;1018990;29;20070;-69
2024/01/13 00:27:58;;;;;;;1.02;1.02;;;;;;;-5.89;100.00;96967.31;1011534;29;20280;-68
2024/01/13 00:28:32;;;;;;;3.92;2.45;;;;;;;-5.87;100.00;96965.44;1019610;29;20050;-69
2024/01/13 00:29:02;;;;;;;7.72;1.92;;;;;;;-5.89;100.00;96967.31;1023756;28;20279;-69
2024/01/13 00:29:33;;;;;;;0.50;0.50;;;;;;;-5.93;100.00;96962.50;1027354;28;20048;-68
2024/01/13 00:30:03;;;;;;;4.28;2.00;;;;;;;-5.94;100.00;96968.53;1030727;28;20026;-68
2024/01/13 00:30:34;;;;;;;1.90;1.38;;;;;;;-5.90;100.00;96966.53;1027432;28;20137;-69
2024/01/13 00:31:04;;;;;;;3.80;2.22;;;;;;;-5.90;100.00;96965.69;1022947;29;20361;-69
2024/01/13 00:31:35;;;;;;;0.47;0.47;;;;;;;-5.94;100.00;96960.06;1018448;29;20024;-70
2024/01/13 00:32:05;;;;;;;1.17;1.08;;;;;;;-5.92;100.00;96968.38;1011587;29;20072;-68
2024/01/13 00:32:36;;;;;;;5.80;3.90;;;;;;;-6.00;100.00;96960.56;1011221;29;20346;-69
2024/01/13 00:33:06;;;;;;;6.50;0.95;;;;;;;-6.00;100.00;96956.28;1011581;29;20060;-68
2024/01/13 00:33:37;;;;;;;4.43;1.02;;;;;;;-6.03;100.00;96964.22;1018899;28;20036;-68
2024/01/13 00:34:07;;;;;;;2.15;2.05;;;;;;;-6.00;100.00;96956.28;1027203;28;20077;-69
2024/01/13 00:34:38;;;;;;;3.47;1.65;;;;;;;-6.08;100.00;96945.88;1023107;28;20027;-68
2024/01/13 00:35:08;;;;;;;1.63;1.52;;;;;;;-5.99;100.00;96964.75;1022983;29;20027;-68
2024/01/13 00:35:39;;;;;;;0.80;0.80;;;;;;;-6.03;100.00;96963.41;1018991;29;20024;-70
2024/01/13 00:36:10;;;;;;;1.30;1.20;;;;;;;-6.00;100.00;96953.75;1019393;28;20538;-68
2024/01/13 00:36:40;;;;;;;1.65;1.55;;;;;;;-6.01;100.00;96962.31;1023021;28;20050;-68
2024/01/13 00:37:11;;;;;;;0.75;0.75;;;;;;;-6.01;100.00;96958.97;1023215;28;20023;-68
2024/01/13 00:37:41;;;;;;;1.70;1.33;;;;;;;-6.06;100.00;96961.91;1022909;29;20039;-68
2024/01/13 00:38:12;;;;;;;6.28;4.13;;;;;;;-6.00;100.00;96963.13;1019101;29;20027;-68
2024/01/13 00:38:42;;;;;;;1.30;1.27;;;;;;;-6.00;100.00;96963.97;1018458;29;20027;-68
2024/01/13 00:39:12;;;;;;;0.98;0.95;;;;;;;-6.03;100.00;96961.66;1019029;29;20528;-68
2024/01/13 00:39:43;;;;;;;1.40;1.30;;;;;;;-6.01;100.00;96959.75;1021054;29;20031;-66
2024/01/13 00:40:13;;;;;;;2.67;2.08;;;;;;;-6.08;100.00;96958.66;1016910;28;20032;-68
2024/01/13 00:40:44;;;;;;;3.00;1.85;;;;;;;-6.04;100.00;96960.03;1023199;28;20074;-68
2024/01/13 00:41:14;;;;;;;3.47;1.20;;;;;;;-6.00;100.00;96963.13;1023223;29;20024;-68
2024/01/13 00:41:45;;;;;;;1.80;1.65;;;;;;;-5.97;100.00;96960.31;1022846;28;20105;-67
2024/01/13 00:42:16;;;;;;;5.43;2.13;;;;;;;-6.03;100.00;96950.63;1027032;28;20034;-68
2024/01/13 00:42:46;;;;;;;0.52;0.52;;;;;;;-5.92;100.00;96969.19;1023336;28;20286;-68
2024/01/13 00:43:17;;;;;;;0.90;0.75;;;;;;;-6.06;100.00;96941.47;1021730;29;20407;-68
2024/01/13 00:43:47;;;;;;;6.85;3.40;;;;;;;-5.98;100.00;96959.50;1019949;29;20024;-69
2024/01/13 00:44:18;;;;;;;0.80;0.80;;;;;;;-6.02;100.00;96960.72;1019246;28;20468;-69
2024/01/13 00:44:48;;;;;;;2.50;1.98;;;;;;;-6.00;100.00;96958.00;1024514;28;20099;-70
2024/01/13 00:45:19;;;;;;;0.60;0.60;;;;;;;-6.03;100.00;96948.88;1025017;28;20027;-69
2024/01/13 00:45:49;;;;;;;3.17;2.08;;;;;;;-5.94;100.00;96960.06;1022873;29;20593;-67
2024/01/13 00:46:20;;;;;;;1.42;0.85;;;;;;;-5.90;100.00;96960.56;1022848;28;20035;-70
2024/01/13 00:46:50;;;;;;;6.45;1.65;;;;;;;-5.93;100.00;96962.50;1019631;29;20039;-68
2024/01/13 00:47:20;;;;;;;0.55;0.52;;;;;;;-5.94;100.00;96965.97;1015416;29;20040;-69
2024/01/13 00:47:51;;;;;;;2.05;1.45;;;;;;;-6.00;100.00;96958.00;1014702;29;20122;-69
2024/01/13 00:48:21;;;;;;;1.55;1.45;;;;;;;-6.04;100.00;96961.78;1021085;28;20094;-68
2024/01/13 00:48:52;;;;;;;1.52;1.52;;;;;;;-6.05;100.00;96957.59;1027970;28;20030;-69
2024/01/13 00:49:22;;;;;;;0.38;0.38;;;;;;;-6.04;100.00;96970.22;1027283;28;20034;-71
2024/01/13 00:49:53;;;;;;;2.47;1.40;;;;;;;-6.10;100.00;96950.34;1027080;28;20042;-68
2024/01/13 00:50:23;;;;;;;5.15;2.85;;;;;;;-6.08;100.00;96952.75;1022875;29;20039;-68
2024/01/13 00:50:54;;;;;;;2.40;2.20;;;;;;;-6.06;100.00;96956.00;1019712;29;20036;-69
2024/01/13 00:51:24;;;;;;;1.08;0.68;;;;;;;-6.03;100.00;96961.66;1023063;29;20090;-68
2024/01/13 00:51:55;;;;;;;2.13;2.00;;;;;;;-6.06;100.00;96954.25;1011529;29;20047;-68
2024/01/13 00:52:26;;;;;;;2.97;2.78;;;;;;;-6.10;100.00;96945.22;1011481;29;20040;-68
2024/01/13 00:52:57;;;;;;;2.98;2.44;;;;;;;-5.95;100.00;96966.91;1017167;29;20920;-68
2024/01/13 00:53:28;;;;;;;0.52;0.52;;;;;;;-5.95;100.00;96968.66;1019909;28;20039;-70
2024/01/13 00:53:58;;;;;;;0.43;0.43;;;;;;;-5.93;100.00;96966.81;1019373;28;20024;-68
2024/01/13 00:54:28;;;;;;;1.08;1.08;;;;;;;-5.97;100.00;96971.38;1026999;28;20082;-70
2024/01/13 00:54:59;;;;;;;1.05;0.93;;;;;;;-5.95;100.00;96966.91;1027326;28;20023;-68
2024/01/13 00:55:29;;;;;;;2.88;2.67;;;;;;;-5.98;100.00;96964.63;1022796;28;20023;-68
2024/01/13 00:56:00;;;;;;;0.85;0.70;;;;;;;-5.99;100.00;96963.00;1027129;28;20456;-69
2024/01/13 00:56:30;;;;;;;1.23;1.00;;;;;;;-6.00;100.00;96960.56;1023284;29;20023;-69
2024/01/13 00:57:01;;;;;;;3.30;1.48;;;;;;;-6.00;100.00;96966.50;1015474;29;20016;-68
2024/01/13 00:57:31;;;;;;;1.52;1.52;;;;;;;-6.00;100.00;96965.69;1019178;29;20035;-68
2024/01/13 00:58:02;;;;;;;0.85;0.85;;;;;;;-5.96;100.00;96965.31;1019020;29;20038;-70
2024/01/13 00:58:32;;;;;;;2.05;1.95;;;;;;;-5.94;100.00;96965.16;1018917;28;20047;-69
2024/01/13 00:59:02;;;;;;;5.32;2.45;;;;;;;-6.03;100.00;96955.75;1023482;29;20027;-67
2024/01/13 00:59:33;;;;;;;0.75;0.75;;;;;;;-6.04;100.00;96972.78;1019124;29;20094;-68
2024/01/13 01:00:04;;;;;;;1.40;1.30;;;;;;;-6.00;100.00;96968.22;1023216;28;20027;-68
2024/01/13 01:00:37;;;;;;;1.13;1.13;;;;;;;-5.99;100.00;96965.56;1027717;28;20395;-69
2024/01/13 01:01:08;;;;;;;0.57;0.57;;;;;;;-5.93;100.00;96966.81;1025741;28;20262;-69
2024/01/13 01:01:38;;;;;;;2.83;2.60;;;;;;;-5.93;100.00;96970.16;1026612;28;20027;-71
2024/01/13 01:02:09;;;;;;;3.35;2.17;;;;;;;-6.03;100.00;96946.31;1023015;29;20035;-67
2024/01/13 01:02:39;;;;;;;1.15;1.08;;;;;;;-5.95;100.00;96973.78;1022704;28;20019;-68
2024/01/13 01:03:10;;;;;;;4.20;2.70;;;;;;;-5.89;100.00;96969.88;1024568;28;20020;-70
2024/01/13 01:03:40;;;;;;;0.85;0.85;;;;;;;-5.91;100.00;96970.00;1030512;28;20027;-71
2024/01/13 01:04:11;;;;;;;5.40;2.42;;;;;;;-5.85;100.00;96974.59;1030436;28;20159;-70
2024/01/13 01:04:41;;;;;;;0.90;0.90;;;;;;;-6.01;100.00;96954.66;1030122;28;20023;-69
2024/01/13 01:05:11;;;;;;;3.92;2.00;;;;;;;-5.93;100.00;96972.72;1034716;28;20022;-70
2024/01/13 01:05:42;;;;;;;3.30;2.25;;;;;;;-5.88;100.00;96976.59;1030628;28;20458;-70
2024/01/13 01:06:12;;;;;;;1.85;1.75;;;;;;;-5.94;100.00;96976.19;1032775;28;20026;-70
2024/01/13 01:06:43;;;;;;;2.10;1.20;;;;;;;-6.06;100.00;96956.81;1035176;28;20038;-68
2024/01/13 01:07:14;;;;;;;2.22;0.65;;;;;;;-5.89;100.00;96977.53;1026793;28;20027;-68
2024/01/13 01:07:44;;;;;;;1.67;1.58;;;;;;;-5.85;100.00;96978.91;1026683;28;20031;-71
2024/01/13 01:08:14;;;;;;;1.50;0.85;;;;;;;-5.85;100.00;96973.78;1026202;29;20530;-70
2024/01/13 01:08:45;;;;;;;1.33;1.23;;;;;;;-5.90;100.00;96969.06;1027103;28;20034;-69
2024/01/13 01:09:16;;;;;;;1.55;1.45;;;;;;;-5.89;100.00;96972.44;1027751;28;20023;-69
2024/01/13 01:09:46;;;;;;;1.20;1.10;;;;;;;-5.91;100.00;96975.09;1024722;28;20537;-68
2024/01/13 01:10:17;;;;;;;1.92;1.42;;;;;;;-5.92;100.00;96973.50;1020033;29;20569;-71
2024/01/13 01:10:47;;;;;;;1.85;1.52;;;;;;;-5.95;100.00;96973.78;1020188;28;20040;-69
2024/01/13 01:11:18;;;;;;;4.72;1.63;;;;;;;-6.01;100.00;96966.63;1025440;28;20579;-70
2024/01/13 01:11:48;;;;;;;9.52;2.65;;;;;;;-6.00;100.00;96971.63;1027961;28;20533;-69
2024/01/13 01:12:21;;;;;;;0.10;0.10;;;;;;;-5.98;100.00;96974.03;1027781;28;20026;-68
2024/01/13 01:12:52;;;;;;;2.33;2.03;;;;;;;-5.96;100.00;96967.88;1028121;28;20060;-69
2024/01/13 01:13:22;;;;;;;2.80;0.80;;;;;;;-5.89;100.00;96972.44;1028522;28;20034;-71
2024/01/13 01:13:53;;;;;;;0.10;0.10;;;;;;;-5.90;100.00;96971.63;1035991;28;20026;-68
2024/01/13 01:14:23;;;;;;;2.83;2.63;;;;;;;-5.93;100.00;96967.59;1035934;28;20505;-69
2024/01/13 01:14:54;;;;;;;1.45;1.35;;;;;;;-5.92;100.00;96976.84;1031104;28;20060;-70
2024/01/13 01:15:24;;;;;;;0.50;0.50;;;;;;;-5.86;100.00;96969.63;1028400;28;20030;-69
2024/01/13 01:15:55;;;;;;;1.75;1.13;;;;;;;-5.91;100.00;96972.53;1019964;29;20020;-68
2024/01/13 01:16:25;;;;;;;0.85;0.70;;;;;;;-6.01;100.00;96962.31;1019715;28;20020;-67
2024/01/13 01:16:56;;;;;;;8.05;1.27;;;;;;;-6.08;100.00;96958.66;1022535;28;20019;-69
2024/01/13 01:17:26;;;;;;;0.55;0.52;;;;;;;-6.01;100.00;96974.28;1023909;28;20028;-69
2024/01/13 01:17:57;;;;;;;1.75;1.00;;;;;;;-6.01;100.00;96975.09;1023568;28;20045;-69
2024/01/13 01:18:27;;;;;;;0.55;0.55;;;;;;;-6.03;100.00;96964.22;1020321;29;20062;-69
2024/01/13 01:18:58;;;;;;;1.13;1.13;;;;;;;-6.03;100.00;96976.19;1019953;29;20125;-69
2024/01/13 01:19:29;;;;;;;3.75;1.25;;;;;;;-6.00;100.00;96968.22;1024390;28;20031;-72
2024/01/13 01:19:59;;;;;;;3.97;3.03;;;;;;;-6.04;100.00;96975.34;1020909;28;20078;-69
2024/01/13 01:20:30;;;;;;;0.32;0.32;;;;;;;-6.04;100.00;96970.22;1022787;28;20091;-69
2024/01/13 01:21:00;;;;;;;4.35;1.95;;;;;;;-6.05;100.00;96978.03;1028444;28;20022;-70
2024/01/13 01:21:31;;;;;;;4.38;2.83;;;;;;;-6.05;100.00;96968.63;1027585;28;20030;-69
2024/01/13 01:22:01;;;;;;;1.55;1.45;;;;;;;-6.03;100.00;96966.75;1032028;28;20030;-69
2024/01/13 01:22:32;;;;;;;3.47;3.17;;;;;;;-6.09;100.00;96964.72;1038412;28;20080;-69
2024/01/13 01:23:02;;;;;;;0.17;0.17;;;;;;;-6.04;100.00;96970.22;1034861;28;20030;-71
2024/01/13 01:23:32;;;;;;;2.17;2.00;;;;;;;-6.08;100.00;96965.53;1035253;28;20018;-68
2024/01/13 01:24:03;;;;;;;1.77;1.67;;;;;;;-6.03;100.00;96971.88;1027053;28;20034;-70
2024/01/13 01:24:33;;;;;;;1.65;1.55;;;;;;;-6.24;100.00;96943.00;1023578;28;20083;-69
2024/01/13 01:25:05;;;;;;;3.22;2.83;;;;;;;-6.02;100.00;96970.13;1027790;28;20052;-70
2024/01/13 01:25:35;;;;;;;1.50;1.42;;;;;;;-6.02;100.00;96972.69;1023723;28;20074;-68
2024/01/13 01:26:06;;;;;;;1.85;1.75;;;;;;;-6.08;100.00;96958.66;1032144;28;20033;-69
2024/01/13 01:26:36;;;;;;;0.85;0.65;;;;;;;-6.03;100.00;96971.88;1031946;28;20030;-69
2024/01/13 01:27:07;;;;;;;0.95;0.95;;;;;;;-6.03;100.00;96966.75;1031852;28;20651;-69
2024/01/13 01:27:37;;;;;;;1.98;1.83;;;;;;;-6.03;100.00;96964.22;1032826;28;20034;-70
2024/01/13 01:28:08;;;;;;;1.02;1.02;;;;;;;-6.04;100.00;96965.13;1027634;28;20034;-70
2024/01/13 01:28:38;;;;;;;8.10;3.88;;;;;;;-6.01;100.00;96958.97;1031800;28;20027;-69
2024/01/13 01:29:09;;;;;;;0.43;0.43;;;;;;;-6.07;100.00;96960.31;1032173;28;20029;-67
2024/01/13 01:29:39;;;;;;;4.25;2.35;;;;;;;-6.00;100.00;96965.69;1032133;28;20081;-69
2024/01/13 01:30:10;;;;;;;3.65;1.42;;;;;;;-6.00;100.00;96958.84;1029455;28;20038;-67
2024/01/13 01:30:41;;;;;;;0.47;0.47;;;;;;;-5.95;100.00;96956.69;1036047;28;20029;-70
2024/01/13 01:31:11;;;;;;;3.38;1.00;;;;;;;-5.95;100.00;96966.91;1039105;28;20277;-71
2024/01/13 01:31:41;;;;;;;0.38;0.38;;;;;;;-5.93;100.00;96961.69;1034109;28;20139;-75
2024/01/13 01:32:12;;;;;;;0.70;0.70;;;;;;;-5.94;100.00;96963.41;1040526;28;20006;-69
2024/01/13 01:32:42;;;;;;;1.35;1.10;;;;;;;-5.99;100.00;96957.91;1040424;28;20021;-72
2024/01/13 01:33:13;;;;;;;0.73;0.73;;;;;;;-5.99;100.00;96965.56;1040176;28;20045;-71
2024/01/13 01:33:43;;;;;;;1.02;1.02;;;;;;;-6.00;100.00;96958.84;1040562;28;20030;-70
2024/01/13 01:34:14;;;;;;;3.55;1.60;;;;;;;-5.97;100.00;96960.31;1040684;28;20033;-71
2024/01/13 01:34:44;;;;;;;2.72;1.95;;;;;;;-5.96;100.00;96964.50;1039494;28;20010;-70
2024/01/13 01:35:15;;;;;;;1.42;1.33;;;;;;;-5.99;100.00;96967.31;1038876;28;20045;-70
2024/01/13 01:35:45;;;;;;;1.02;0.95;;;;;;;-5.99;100.00;96965.56;1036340;28;20037;-75
2024/01/13 01:36:16;;;;;;;0.98;0.98;;;;;;;-6.00;100.00;96963.97;1036033;28;20022;-69
2024/01/13 01:36:46;;;;;;;0.70;0.70;;;;;;;-5.98;100.00;96954.41;1031865;28;20540;-71
2024/01/13 01:37:17;;;;;;;0.30;0.30;;;;;;;-5.95;100.00;96969.47;1020544;29;20060;-72
2024/01/13 01:37:48;;;;;;;1.44;1.34;;;;;;;-5.96;100.00;96957.66;1023631;29;20032;-69
2024/01/13 01:38:18;;;;;;;0.25;0.25;;;;;;;-6.04;100.00;96961.78;1022815;28;20032;-70
2024/01/13 01:38:49;;;;;;;2.97;2.72;;;;;;;-5.99;100.00;96963.00;1028733;28;20042;-72
2024/01/13 01:39:19;;;;;;;1.45;0.80;;;;;;;-5.96;100.00;96965.31;1035506;28;20022;-71
2024/01/13 01:39:49;;;;;;;1.30;0.65;;;;;;;-6.01;100.00;96959.75;1031647;28;20034;-70
2024/01/13 01:40:20;;;;;;;0.28;0.28;;;;;;;-5.98;100.00;96956.94;1028085;28;20034;-70
2024/01/13 01:40:54;;;;;;;0.28;0.28;;;;;;;-6.00;100.00;96950.34;1023978;29;20031;-69
2024/01/13 01:41:24;;;;;;;6.82;1.46;;;;;;;-5.93;100.00;96961.69;1023162;28;20118;-71
2024/01/13 01:41:55;;;;;;;3.13;1.15;;;;;;;-5.93;100.00;96962.50;1020338;29;20035;-70
2024/01/13 01:42:25;;;;;;;1.95;1.85;;;;;;;-5.90;100.00;96958.84;1020547;28;20028;-69
2024/01/13 01:42:56;;;;;;;1.48;1.38;;;;;;;-5.93;100.00;96956.59;1023937;29;20607;-69
2024/01/13 01:43:26;;;;;;;0.57;0.57;;;;;;;-5.98;100.00;96959.50;1025665;28;20039;-69
2024/01/13 01:43:57;;;;;;;1.60;1.35;;;;;;;-5.99;100.00;96952.78;1032115;28;20034;-69
2024/01/13 01:44:27;;;;;;;1.08;1.08;;;;;;;-6.00;100.00;96950.34;1029923;28;20213;-69
2024/01/13 01:44:58;;;;;;;6.03;3.53;;;;;;;-6.02;100.00;96955.59;1031480;28;20026;-69
2024/01/13 01:45:29;;;;;;;2.03;1.92;;;;;;;-6.02;100.00;96950.50;1023788;28;20082;-70
2024/01/13 01:45:59;;;;;;;1.35;1.30;;;;;;;-5.99;100.00;96944.31;1023766;28;20651;-69
2024/01/13 01:46:30;;;;;;;0.38;0.38;;;;;;;-5.99;100.00;96952.78;1015528;29;20746;-69
2024/01/13 01:47:00;;;;;;;2.20;1.55;;;;;;;-5.99;100.00;96949.44;1023677;29;20019;-69
2024/01/13 01:47:31;;;;;;;0.88;0.88;;;;;;;-5.99;100.00;96950.22;1027500;28;20086;-70
2024/01/13 01:48:04;;;;;;;0.57;0.57;;;;;;;-5.99;100.00;96947.69;1019056;29;20281;-69
2024/01/13 01:48:38;;;;;;;3.78;3.44;;;;;;;-5.99;100.00;96952.78;1018721;29;20008;-68
2024/01/13 01:49:11;;;;;;;0.77;0.77;;;;;;;-6.08;100.00;96934.88;1020424;29;20594;-69
2024/01/13 01:49:42;;;;;;;1.50;1.40;;;;;;;-5.95;100.00;96956.69;1028221;28;20273;-69
2024/01/13 01:50:12;;;;;;;0.80;0.77;;;;;;;-5.89;100.00;96954.53;1029226;28;20765;-70
2024/01/13 01:50:43;;;;;;;1.95;1.85;;;;;;;-5.95;100.00;96951.59;1027243;28;20039;-72
2024/01/13 01:51:14;;;;;;;4.07;1.75;;;;;;;-5.94;100.00;96953.19;1031863;28;20022;-67
2024/01/13 01:51:45;;;;;;;1.13;1.13;;;;;;;-5.90;100.00;96950.34;1028060;28;20462;-69
2024/01/13 01:52:16;;;;;;;1.92;1.80;;;;;;;-6.04;100.00;96928.56;1032017;28;20249;-69
2024/01/13 01:52:46;;;;;;;1.02;1.02;;;;;;;-5.90;100.00;96951.19;1023571;29;20069;-69
2024/01/13 01:53:16;;;;;;;0.43;0.43;;;;;;;-5.92;100.00;96953.84;1019887;29;20024;-70
2024/01/13 01:53:47;;;;;;;2.10;2.00;;;;;;;-6.06;100.00;96928.69;1019946;29;20068;-70
2024/01/13 01:54:17;;;;;;;4.13;1.70;;;;;;;-6.03;100.00;96941.22;1020146;28;20012;-69
2024/01/13 01:54:48;;;;;;;1.42;1.33;;;;;;;-6.02;100.00;96937.72;1027718;28;20824;-69
2024/01/13 01:55:18;;;;;;;3.30;1.55;;;;;;;-6.03;100.00;96931.00;1028051;28;20030;-70
2024/01/13 01:55:49;;;;;;;0.77;0.77;;;;;;;-5.99;100.00;96936.66;1027502;28;20085;-71
2024/01/13 01:56:23;;;;;;;2.30;2.20;;;;;;;-6.04;100.00;96937.03;1024116;28;20015;-69
2024/01/13 01:56:54;;;;;;;1.60;1.50;;;;;;;-6.05;100.00;96935.41;1027497;28;20069;-69
2024/01/13 01:57:24;;;;;;;2.33;1.50;;;;;;;-6.03;100.00;96935.31;1028199;28;20057;-69
2024/01/13 01:57:57;;;;;;;0.98;0.98;;;;;;;-6.06;100.00;96931.25;1031507;28;20025;-69
2024/01/13 01:58:27;;;;;;;0.80;0.80;;;;;;;-6.12;100.00;96930.97;1027617;28;20018;-70
2024/01/13 01:58:57;;;;;;;2.53;2.33;;;;;;;-6.06;100.00;96945.78;1023965;28;20181;-69
2024/01/13 01:59:28;;;;;;;1.65;1.55;;;;;;;-5.99;100.00;96940.00;1019507;29;20020;-69
2024/01/13 01:59:58;;;;;;;1.25;1.15;;;;;;;-5.99;100.00;96937.47;1023736;29;20486;-70
2024/01/13 02:00:29;;;;;;;1.95;1.30;;;;;;;-6.02;100.00;96942.81;1020084;29;20023;-71
2024/01/13 02:00:59;;;;;;;1.60;1.25;;;;;;;-6.02;100.00;96940.28;1023397;29;20019;-70
2024/01/13 02:01:33;;;;;;;3.22;2.22;;;;;;;-6.02;100.00;96942.81;1023623;29;20046;-68
2024/01/13 02:02:03;;;;;;;4.05;1.98;;;;;;;-6.04;100.00;96941.34;1019687;29;20149;-70
2024/01/13 02:02:34;;;;;;;3.95;1.65;;;;;;;-6.03;100.00;96938.66;1020159;29;20018;-69
2024/01/13 02:03:04;;;;;;;2.65;1.85;;;;;;;-6.04;100.00;96933.66;1024802;28;20079;-69
2024/01/13 02:03:35;;;;;;;3.70;3.30;;;;;;;-5.99;100.00;96937.47;1027654;28;20388;-69
2024/01/13 02:04:05;;;;;;;0.15;0.15;;;;;;;-5.95;100.00;96941.38;1023141;29;20039;-69
2024/01/13 02:04:36;;;;;;;0.68;0.68;;;;;;;-5.93;100.00;96947.16;1019941;29;20020;-69
2024/01/13 02:05:07;;;;;;;0.77;0.77;;;;;;;-5.99;100.00;96927.25;1023507;28;20066;-69
2024/01/13 02:05:39;;;;;;;3.88;2.90;;;;;;;-5.89;100.00;96941.78;1023760;28;20025;-69
2024/01/13 02:06:10;;;;;;;4.47;0.68;;;;;;;-5.97;100.00;96932.22;1031759;28;20313;-69
2024/01/13 02:06:40;;;;;;;3.53;1.80;;;;;;;-5.95;100.00;96927.78;1031451;28;20676;-69
2024/01/13 02:07:11;;;;;;;1.27;1.27;;;;;;;-5.87;100.00;96938.13;1024271;28;20262;-69
2024/01/13 02:07:41;;;;;;;4.75;3.25;;;;;;;-5.87;100.00;96937.31;1027382;28;20363;-70
2024/01/13 02:08:12;;;;;;;1.02;1.02;;;;;;;-5.94;100.00;96922.53;1023097;28;20026;-70
2024/01/13 02:08:42;;;;;;;0.73;0.73;;;;;;;-5.93;100.00;96929.28;1025966;28;20510;-68
2024/01/13 02:09:13;;;;;;;1.95;1.85;;;;;;;-5.90;100.00;96933.31;1024635;28;20062;-69
2024/01/13 02:09:43;;;;;;;0.95;0.93;;;;;;;-5.97;100.00;96920.25;1027556;28;20035;-70
2024/01/13 02:10:14;;;;;;;3.13;1.67;;;;;;;-6.03;100.00;96918.22;1027818;28;20022;-69
2024/01/13 02:10:44;;;;;;;5.97;3.35;;;;;;;-6.06;100.00;96923.59;1019822;29;20032;-69
2024/01/13 02:11:15;;;;;;;3.90;2.08;;;;;;;-6.06;100.00;96923.59;1023886;29;20023;-70
2024/01/13 02:11:45;;;;;;;2.30;2.10;;;;;;;-6.12;100.00;96918.19;1015665;29;20107;-70
2024/01/13 02:12:16;;;;;;;1.52;1.45;;;;;;;-6.15;100.00;96910.78;1011813;29;20032;-69
2024/01/13 02:12:46;;;;;;;0.65;0.65;;;;;;;-6.05;100.00;96922.66;1019855;29;20479;-69
2024/01/13 02:13:17;;;;;;;3.40;1.73;;;;;;;-6.03;100.00;96920.78;1023622;29;20143;-69
2024/01/13 02:13:47;;;;;;;0.80;0.73;;;;;;;-6.09;100.00;96911.06;1023520;28;20016;-70
2024/01/13 02:14:18;;;;;;;2.22;0.73;;;;;;;-6.02;100.00;96919.84;1027734;28;20033;-69
2024/01/13 02:14:50;;;;;;;1.48;1.10;;;;;;;-6.06;100.00;96912.56;1025964;28;20059;-69
2024/01/13 02:15:21;;;;;;;1.75;1.65;;;;;;;-6.02;100.00;96919.84;1024017;29;20419;-69
2024/01/13 02:15:51;;;;;;;3.10;0.95;;;;;;;-6.07;100.00;96913.47;1027629;28;20289;-70
2024/01/13 02:16:22;;;;;;;2.80;1.75;;;;;;;-6.12;100.00;96906.22;1021236;29;20025;-69
2024/01/13 02:16:52;;;;;;;4.53;2.40;;;;;;;-6.08;100.00;96922.09;1020304;28;20020;-69
2024/01/13 02:17:23;;;;;;;6.03;1.67;;;;;;;-6.12;100.00;96915.63;1019635;29;20510;-68
2024/01/13 02:17:53;;;;;;;3.10;2.80;;;;;;;-6.09;100.00;96915.38;1015614;29;20032;-69
2024/01/13 02:18:24;;;;;;;2.00;1.77;;;;;;;-6.13;100.00;96909.72;1023574;29;20051;-69
2024/01/13 02:18:54;;;;;;;1.45;1.35;;;;;;;-6.05;100.00;96919.28;1019908;28;20024;-70
2024/01/13 02:19:32;;;;;;;1.02;1.02;;;;;;;-6.02;100.00;96917.28;1023498;28;20029;-69
2024/01/13 02:20:05;;;;;;;3.96;3.08;;;;;;;-6.08;100.00;96917.78;1027573;28;20445;-70
2024/01/13 02:20:35;;;;;;;1.76;1.46;;;;;;;-6.06;100.00;96913.38;1027270;28;20106;-70
2024/01/13 02:21:06;;;;;;;3.22;3.08;;;;;;;-6.02;100.00;96912.16;1027527;28;20026;-69
2024/01/13 02:21:36;;;;;;;4.70;1.73;;;;;;;-6.01;100.00;96916.34;1018908;29;20036;-69
2024/01/13 02:22:07;;;;;;;3.83;2.85;;;;;;;-6.00;100.00;96912.84;1023469;29;20023;-71
2024/01/13 02:22:37;;;;;;;1.40;1.38;;;;;;;-6.06;100.00;96910.81;1026062;28;20038;-69